Time;durP1;ratioP1;P1;durP2;ratioP2;P2;SDS_P1;SDS_P2;PMS_P1;PMS_P2;Temp;Humidity;BMP_temperature;BMP_pressure;BME280_temperature;BME280_humidity;BME280_pressure;Samples;Min_cycle;Max_cycle;Signal;HPM_P1;HPM_P2
2023/05/16 00:09:14;;;;;;;7.03;5.33;;;;;;;;;;20914975;28;20202;-70
2023/05/16 00:19:16;;;;;;;7.53;5.17;;;;;;;;;;20907484;28;20222;-69
2023/05/16 00:29:18;;;;;;;8.27;6.33;;;;;;;;;;20911896;28;20430;-69
2023/05/16 00:39:19;;;;;;;7.17;5.57;;;;;;;;;;20888868;28;20680;-69
2023/05/16 00:49:21;;;;;;;8.50;5.97;;;;;;;;;;20906767;28;20202;-69
2023/05/16 00:59:24;;;;;;;8.33;5.83;;;;;;;;;;20904713;28;20275;-69
2023/05/16 01:09:25;;;;;;;8.00;5.90;;;;;;;;;;20880138;28;20700;-69
2023/05/16 01:19:51;;;;;;;7.10;5.47;;;;;;;;;;20960772;28;20262;-69
2023/05/16 01:29:56;;;;;;;7.13;4.73;;;;;;;;;;20949092;28;20271;-69
2023/05/16 01:40:10;;;;;;;6.60;4.83;;;16.60;99.90;;;;;;20965754;28;20210;-68
2023/05/16 01:50:19;;;;;;;7.37;4.57;;;16.40;99.90;;;;;;20902831;28;20268;-70
2023/05/16 02:00:21;;;;;;;5.50;4.03;;;;;;;;;;20883863;28;20217;-70
2023/05/16 02:10:23;;;;;;;5.57;4.20;;;;;;;;;;20958781;28;20197;-70
2023/05/16 02:20:25;;;;;;;5.47;3.83;;;;;;;;;;20929181;28;20290;-69
2023/05/16 02:30:27;;;;;;;7.50;3.77;;;;;;;;;;20980684;28;20225;-69
2023/05/16 02:40:29;;;;;;;5.00;3.60;;;;;;;;;;20999233;28;20213;-69
2023/05/16 02:50:31;;;;;;;5.33;3.63;;;;;;;;;;20980963;28;20209;-69
2023/05/16 03:00:32;;;;;;;4.70;3.17;;;;;;;;;;20979570;28;20209;-69
2023/05/16 03:10:34;;;;;;;5.23;3.53;;;;;;;;;;20914164;28;20225;-69
2023/05/16 03:20:36;;;;;;;5.80;3.60;;;;;;;;;;20895898;28;20241;-69
2023/05/16 03:30:37;;;;;;;4.73;3.40;;;;;;;;;;20894129;28;20591;-69
2023/05/16 03:40:39;;;;;;;5.07;3.17;;;;;;;;;;20891512;28;20287;-69
2023/05/16 03:50:41;;;;;;;5.17;3.33;;;;;;;;;;20918227;28;20620;-69
2023/05/16 04:00:45;;;;;;;4.00;2.83;;;;;;;;;;20913769;28;20226;-70
2023/05/16 04:10:47;;;;;;;5.10;3.80;;;;;;;;;;20969404;28;20225;-69
2023/05/16 04:20:49;;;;;;;5.67;3.30;;;;;;;;;;20983242;28;20639;-69
2023/05/16 04:30:51;;;;;;;4.70;3.13;;;;;;;;;;20951164;28;20267;-69
2023/05/16 04:40:52;;;;;;;5.73;3.47;;;;;;;;;;20906579;28;20214;-69
2023/05/16 04:50:54;;;;;;;5.47;2.80;;;;;;;;;;20908449;28;20209;-69
2023/05/16 05:00:56;;;;;;;6.17;3.23;;;;;;;;;;20903754;28;20222;-71
2023/05/16 05:10:58;;;;;;;3.47;1.80;;;;;;;;;;20925108;23;20238;-81
2023/05/16 05:21:00;;;;;;;2.83;1.50;;;;;;;;;;20876498;28;20303;-82
2023/05/16 05:31:01;;;;;;;2.27;0.90;;;;;;;;;;20881010;28;20217;-82
2023/05/16 05:41:03;;;;;;;1.00;0.40;;;;;;;;;;20902434;28;20303;-81
2023/05/16 05:51:05;;;;;;;0.40;0.33;;;;;;;;;;20924483;28;20210;-82
2023/05/16 06:01:07;;;;;;;2.60;0.70;;;;;;;;;;20936518;28;20229;-81
2023/05/16 06:11:09;;;;;;;0.40;0.30;;;;;;;;;;20913541;28;20287;-81
2023/05/16 06:21:10;;;;;;;1.63;0.53;;;;;;;;;;20934756;28;20237;-81
2023/05/16 06:31:12;;;;;;;0.60;0.40;;;;;;;;;;20915271;28;20279;-81
2023/05/16 06:41:14;;;;;;;0.23;0.23;;;;;;;;;;20912620;28;20311;-81
2023/05/16 06:51:16;;;;;;;0.40;0.30;;;;;;;;;;20944882;28;20237;-81
2023/05/16 07:01:18;;;;;;;0.20;0.20;;;;;;;;;;20987018;28;20305;-81
2023/05/16 07:11:20;;;;;;;0.53;0.30;;;;;;;;;;20916709;28;20779;-81
2023/05/16 07:21:21;;;;;;;0.20;0.20;;;;;;;;;;20916731;28;20222;-81
2023/05/16 07:31:23;;;;;;;0.20;0.20;;;;;;;;;;20832179;28;20223;-81
2023/05/16 07:41:25;;;;;;;0.20;0.20;;;;;;;;;;20892679;28;20751;-83
2023/05/16 07:51:27;;;;;;;0.43;0.30;;;;;;;;;;20964558;28;20213;-83
2023/05/16 08:01:29;;;;;;;0.40;0.30;;;;;;;;;;20945524;28;20220;-81
2023/05/16 08:11:31;;;;;;;0.43;0.30;;;;;;;;;;20979564;28;20233;-81
2023/05/16 08:21:33;;;;;;;0.30;0.30;;;15.00;99.90;;;;;;20923457;28;20303;-85
2023/05/16 08:31:34;;;;;;;0.30;0.30;;;;;;;;;;20818103;28;20770;-82
2023/05/16 08:41:37;;;;;;;0.40;0.40;;;;;;;;;;20827213;28;20230;-81
2023/05/16 08:51:40;;;;;;;0.10;0.10;;;14.70;99.90;;;;;;20828729;28;20280;-81
2023/05/16 09:01:41;;;;;;;0.20;0.20;;;14.90;99.90;;;;;;20820554;28;20603;-82
2023/05/16 09:11:43;;;;;;;0.20;0.20;;;;;;;;;;20803954;28;20223;-80
2023/05/16 09:21:45;;;;;;;0.20;0.20;;;;;;;;;;20825099;28;20267;-82
2023/05/16 09:31:48;;;;;;;0.20;0.20;;;14.70;99.90;;;;;;20785842;28;20219;-81
2023/05/16 09:41:51;;;;;;;0.20;0.20;;;14.70;99.90;;;;;;20836594;28;20222;-81
2023/05/16 09:51:53;;;;;;;0.30;0.30;;;;;;;;;;20820933;28;20609;-81
2023/05/16 10:02:00;;;;;;;2.33;0.30;;;14.60;99.90;;;;;;20890132;28;20225;-82
2023/05/16 10:12:09;;;;;;;0.27;0.27;;;14.50;99.90;;;;;;20894381;28;20222;-82
2023/05/16 10:22:11;;;;;;;1.23;0.23;;;;;;;;;;20915898;28;20298;-79
2023/05/16 10:32:13;;;;;;;0.10;0.10;;;;;;;;;;20888026;28;20222;-80
2023/05/16 10:42:17;;;;;;;0.20;0.20;;;;;;;;;;20936688;28;20287;-81
2023/05/16 10:52:18;;;;;;;0.30;0.30;;;;;;;;;;20922524;28;20226;-81
2023/05/16 11:02:33;;;;;;;0.60;0.37;;;;;;;;;;20837730;28;20720;-79
2023/05/16 11:12:51;;;;;;;0.67;0.33;;;;;;;;;;20829915;28;20257;-81
2023/05/16 11:23:21;;;;;;;1.03;0.50;;;14.80;99.90;;;;;;20831612;28;20222;-80
2023/05/16 11:33:23;;;;;;;0.87;0.60;;;;;;;;;;20835629;28;20211;-80
2023/05/16 11:43:25;;;;;;;3.30;0.60;;;;;;;;;;20831924;28;20222;-81
2023/05/16 11:53:27;;;;;;;0.73;0.53;;;;;;;;;;20834508;28;20223;-81
2023/05/16 12:03:32;;;;;;;2.47;0.50;;;;;;;;;;20874183;28;20230;-80
2023/05/16 12:13:34;;;;;;;1.03;0.30;;;;;;;;;;20908761;28;20272;-79
2023/05/16 12:23:36;;;;;;;3.33;0.90;;;;;;;;;;20964251;28;20233;-80
2023/05/16 12:33:37;;;;;;;0.77;0.40;;;;;;;;;;20981270;28;20282;-81
2023/05/16 12:43:39;;;;;;;2.80;0.97;;;;;;;;;;20919292;28;20242;-79
2023/05/16 12:53:43;;;;;;;2.27;0.73;;;;;;;;;;20911334;28;20217;-81
2023/05/16 13:03:44;;;;;;;1.00;0.50;;;;;;;;;;20907969;28;20237;-80
2023/05/16 13:13:46;;;;;;;2.00;0.73;;;;;;;;;;20842640;28;20234;-80
2023/05/16 13:23:48;;;;;;;1.83;0.90;;;;;;;;;;20891078;28;20702;-80
2023/05/16 13:33:49;;;;;;;1.13;0.40;;;;;;;;;;20917702;28;20218;-80
2023/05/16 13:43:51;;;;;;;1.43;0.60;;;;;;;;;;20871178;28;20237;-80
2023/05/16 13:53:53;;;;;;;3.33;1.00;;;;;;;;;;20902169;28;20276;-83
2023/05/16 14:03:55;;;;;;;1.47;0.70;;;;;;;;;;20900710;28;20256;-82
2023/05/16 14:13:57;;;;;;;1.80;0.60;;;;;;;;;;20918275;28;20259;-82
2023/05/16 14:23:59;;;;;;;1.60;0.70;;;;;;;;;;20886928;28;20226;-81
2023/05/16 14:34:01;;;;;;;1.20;0.60;;;;;;;;;;20889688;28;20643;-83
2023/05/16 14:44:03;;;;;;;0.73;0.50;;;;;;;;;;20838013;28;20301;-82
2023/05/16 14:54:06;;;;;;;2.20;0.40;;;;;;;;;;20920080;28;20703;-81
2023/05/16 15:04:08;;;;;;;1.83;0.40;;;;;;;;;;20917168;28;20233;-80
2023/05/16 15:14:09;;;;;;;0.60;0.30;;;;;;;;;;20919429;28;20773;-81
2023/05/16 15:24:11;;;;;;;0.57;0.40;;;;;;;;;;20913675;28;20585;-81
2023/05/16 15:34:13;;;;;;;1.10;0.33;;;;;;;;;;20918360;28;20671;-81
2023/05/16 15:44:15;;;;;;;2.30;0.40;;;;;;;;;;20917944;28;20226;-82
2023/05/16 15:54:16;;;;;;;1.37;0.47;;;;;;;;;;20913954;28;20779;-82
2023/05/16 16:04:19;;;;;;;2.80;0.70;;;18.80;99.90;;;;;;20897892;28;20299;-82
2023/05/16 16:14:23;;;;;;;2.03;0.40;;;;;;;;;;20884949;28;20251;-81
2023/05/16 16:24:25;;;;;;;1.47;0.77;;;;;;;;;;20926000;28;20280;-81
2023/05/16 16:34:26;;;;;;;3.20;0.50;;;;;;;;;;20917824;28;20222;-81
2023/05/16 16:44:28;;;;;;;1.47;0.60;;;;;;;;;;20876115;28;20292;-81
2023/05/16 16:54:30;;;;;;;1.17;0.40;;;;;;;;;;20889809;28;20280;-82
2023/05/16 17:04:33;;;;;;;1.83;0.33;;;;;;;;;;20902510;28;20703;-81
2023/05/16 17:14:35;;;;;;;2.53;0.40;;;;;;;;;;20858548;28;20716;-79
2023/05/16 17:24:37;;;;;;;1.20;0.40;;;;;;;;;;20862092;28;20898;-81
2023/05/16 17:34:41;;;;;;;0.50;0.40;;;;;;;;;;20896949;28;20221;-80
2023/05/16 17:44:43;;;;;;;1.87;0.47;;;;;;;;;;20827373;28;20611;-81
2023/05/16 17:54:45;;;;;;;0.60;0.20;;;;;;;;;;20905537;28;20218;-80
2023/05/16 18:04:47;;;;;;;2.37;0.63;;;;;;;;;;20877958;28;20307;-80
2023/05/16 18:14:52;;;;;;;1.23;0.50;;;;;;;;;;20955575;28;20291;-81
2023/05/16 18:24:54;;;;;;;0.30;0.30;;;;;;;;;;20893153;28;20296;-81
2023/05/16 18:34:56;;;;;;;0.70;0.50;;;;;;;;;;20897875;28;20280;-80
2023/05/16 18:44:58;;;;;;;1.20;0.40;;;;;;;;;;20897064;28;20264;-80
2023/05/16 18:55:00;;;;;;;2.00;0.60;;;;;;;;;;20900889;28;20248;-80
2023/05/16 19:05:03;;;;;;;0.40;0.30;;;;;;;;;;20907730;28;20279;-81
2023/05/16 19:15:05;;;;;;;2.00;0.50;;;;;;;;;;20907124;28;20263;-80
2023/05/16 19:25:07;;;;;;;1.23;0.60;;;;;;;;;;20909572;28;20275;-82
2023/05/16 19:35:09;;;;;;;0.77;0.47;;;;;;;;;;20870566;28;20241;-80
2023/05/16 19:45:11;;;;;;;0.37;0.27;;;;;;;;;;20930454;28;20656;-79
2023/05/16 19:55:14;;;;;;;0.77;0.50;;;;;;;;;;20914170;28;20283;-81
2023/05/16 20:05:21;;;;;;;0.50;0.30;;;;;;;;;;20915886;28;20226;-80
2023/05/16 20:15:22;;;;;;;0.57;0.37;;;;;;;;;;20906977;28;20422;-81
2023/05/16 20:25:24;;;;;;;0.80;0.40;;;;;;;;;;20892537;28;20291;-80
2023/05/16 20:35:27;;;;;;;0.73;0.40;;;;;;;;;;20907945;28;20765;-81
2023/05/16 20:45:30;;;;;;;0.97;0.50;;;;;;;;;;20882799;28;20229;-81
2023/05/16 20:55:31;;;;;;;1.90;0.50;;;;;;;;;;20881468;28;20322;-80
2023/05/16 21:05:34;;;;;;;0.50;0.40;;;;;;;;;;20896752;28;20218;-80
2023/05/16 21:15:37;;;;;;;1.33;0.80;;;;;;;;;;20915710;28;20233;-80
2023/05/16 21:25:39;;;;;;;0.30;0.20;;;;;;;;;;20911145;28;20264;-80
2023/05/16 21:35:41;;;;;;;0.33;0.30;;;;;;;;;;20923526;28;20217;-80
2023/05/16 21:45:43;;;;;;;0.70;0.30;;;;;;;;;;20950685;28;20294;-82
2023/05/16 21:55:45;;;;;;;2.20;0.50;;;;;;;;;;20956043;28;20216;-80
2023/05/16 22:05:46;;;;;;;0.77;0.57;;;;;;;;;;20990196;28;20255;-79
2023/05/16 22:15:48;;;;;;;0.70;0.37;;;;;;;;;;20956225;28;20238;-80
2023/05/16 22:25:50;;;;;;;2.10;0.40;;;;;;;;;;20900223;28;20852;-81
2023/05/16 22:35:52;;;;;;;0.63;0.40;;;;;;;;;;20897807;28;20741;-80
2023/05/16 22:45:54;;;;;;;0.70;0.30;;;;;;;;;;20872534;28;20292;-80
2023/05/16 22:55:55;;;;;;;1.00;0.50;;;;;;;;;;20894369;28;20198;-81
2023/05/16 23:05:57;;;;;;;1.60;0.50;;;;;;;;;;20916570;28;20260;-80
2023/05/16 23:15:59;;;;;;;0.73;0.40;;;;;;;;;;20921574;28;20287;-79
2023/05/16 23:26:00;;;;;;;2.47;0.60;;;;;;;;;;20918346;28;20229;-80
2023/05/16 23:36:02;;;;;;;2.17;0.50;;;;;;;;;;20983897;28;20216;-80
2023/05/16 23:46:04;;;;;;;2.37;0.60;;;;;;;;;;20982284;28;20221;-81
2023/05/16 23:56:06;;;;;;;1.27;0.60;;;;;;;;;;20964228;28;20220;-80
